Milwaukie, Oregon
Current Conditions -  °F | °C
As of 12:53 AM on Monday 20 Oct 2014 (Local Time) from KPDX Reporting Station
Overcast Overcast  
Wind Chill: 63°   Ceiling: 7000
Heat Index: 63°   Visibility: 10mi
Dew Point: 58°   Wind: 10mph
Humidity: 84%   Direction: 120°ESE
Pressure: 29.74"   Gusts: NA
Location:  45.45°N, 122.64°W
Report Text: KPDX 200753Z 12009KT 10SM OVC070 17/14 A2974 RMK AO2 RAB27E39 SLP068 P0000 T01720144 402390128
Loading
Personal Weather Stations






























Interactive Weather Map
Tropical Storm Tracking
New forecast layout! Learn more

10-Day Weather Forecast

Advertisements
Track Severe Weather on mobile